createdAt,value
2023-01-25T00:02:25.784Z,2.52
2023-01-25T00:05:28.739Z,2.66
2023-01-25T00:08:31.344Z,2.59
2023-01-25T00:11:34.289Z,2.55
2023-01-25T00:14:37.199Z,2.65
2023-01-25T00:17:40.167Z,2.61
2023-01-25T00:20:43.155Z,2.64
2023-01-25T00:23:46.813Z,2.57
2023-01-25T00:26:49.344Z,2.55
2023-01-25T00:29:54.305Z,2.41
2023-01-25T00:33:43.469Z,2.40
2023-01-25T00:36:46.328Z,2.35
2023-01-25T00:39:48.957Z,2.21
2023-01-25T00:42:52.061Z,2.29
2023-01-25T00:46:01.222Z,2.24
2023-01-25T00:49:05.759Z,2.04
2023-01-25T00:52:09.865Z,2.10
2023-01-25T00:55:12.790Z,2.10
2023-01-25T00:58:15.549Z,2.17
2023-01-25T01:01:18.704Z,2.17
2023-01-25T01:04:25.173Z,2.09
2023-01-25T01:07:28.308Z,2.04
2023-01-25T01:10:33.502Z,2.10
2023-01-25T01:13:37.033Z,2.07
2023-01-25T01:16:39.793Z,2.04
2023-01-25T01:19:44.867Z,1.90
2023-01-25T01:22:47.441Z,1.85
2023-01-25T01:25:50.885Z,1.89
2023-01-25T01:28:53.608Z,1.84
2023-01-25T01:31:57.339Z,1.78
2023-01-25T01:35:00.276Z,1.83
2023-01-25T01:38:03.618Z,1.78
2023-01-25T01:41:08.963Z,1.65
2023-01-25T01:44:22.707Z,1.77
2023-01-25T01:47:32.563Z,1.72
2023-01-25T01:50:36.701Z,1.68
2023-01-25T01:53:45.072Z,1.75
2023-01-25T01:56:57.414Z,1.73
2023-01-25T02:00:34.416Z,1.78
2023-01-25T02:03:38.574Z,1.75
2023-01-25T02:06:51.104Z,1.74
2023-01-25T02:09:53.980Z,1.76
2023-01-25T02:12:58.551Z,1.77
2023-01-25T02:16:02.328Z,1.85
2023-01-25T02:19:07.522Z,1.79
2023-01-25T02:22:16.389Z,1.73
2023-01-25T02:25:19.384Z,1.71
2023-01-25T02:28:31.464Z,2.24
2023-01-25T02:31:35.108Z,1.77
2023-01-25T02:34:38.095Z,1.62
2023-01-25T02:37:41.103Z,1.48
2023-01-25T02:41:09.064Z,1.53
2023-01-25T02:44:18.017Z,1.54
2023-01-25T02:47:20.930Z,1.57
2023-01-25T02:50:23.701Z,1.63
2023-01-25T02:53:27.535Z,1.53
2023-01-25T02:56:30.581Z,1.50
2023-01-25T02:59:33.969Z,1.54
2023-01-25T03:02:36.955Z,1.46
2023-01-25T03:05:39.922Z,1.43
2023-01-25T03:08:43.258Z,1.48
2023-01-25T03:11:46.370Z,1.26
2023-01-25T03:14:49.187Z,1.05
2023-01-25T03:17:53.998Z,0.82
2023-01-25T03:21:17.348Z,0.98
2023-01-25T03:24:20.687Z,1.09
2023-01-25T03:27:23.423Z,1.16
2023-01-25T03:30:27.510Z,1.18
2023-01-25T03:33:30.339Z,1.17
2023-01-25T03:36:33.851Z,1.07
2023-01-25T03:39:36.725Z,1.05
2023-01-25T03:42:39.720Z,1.03
2023-01-25T03:45:44.059Z,0.99
2023-01-25T03:48:48.054Z,0.91
2023-01-25T03:51:51.534Z,0.92
2023-01-25T03:54:55.083Z,0.78
2023-01-25T03:57:59.066Z,0.65
2023-01-25T04:01:05.972Z,0.60
2023-01-25T04:04:09.313Z,0.51
2023-01-25T04:07:14.309Z,0.66
2023-01-25T04:10:17.498Z,0.57
2023-01-25T04:13:26.004Z,0.87
2023-01-25T04:16:32.687Z,0.81
2023-01-25T04:19:37.375Z,1.10
2023-01-25T04:22:40.614Z,1.32
2023-01-25T04:25:58.001Z,1.32
2023-01-25T04:29:01.024Z,1.18
2023-01-25T04:32:04.513Z,1.28
2023-01-25T04:35:09.409Z,1.35
2023-01-25T04:38:12.458Z,1.36
2023-01-25T04:41:15.806Z,1.46
2023-01-25T04:44:20.080Z,1.27
2023-01-25T04:47:23.533Z,1.11
2023-01-25T04:50:26.827Z,1.13
2023-01-25T04:53:30.560Z,1.14
2023-01-25T04:56:35.542Z,1.27
2023-01-25T04:59:38.651Z,1.35
2023-01-25T05:02:41.471Z,1.52
2023-01-25T05:05:48.019Z,1.18
2023-01-25T05:08:51.284Z,1.37
2023-01-25T05:11:54.985Z,1.57
2023-01-25T05:14:58.937Z,1.54
2023-01-25T05:18:02.568Z,1.58
2023-01-25T05:21:26.692Z,1.70
2023-01-25T05:24:33.176Z,1.65
2023-01-25T05:27:36.792Z,1.36
2023-01-25T05:30:44.646Z,1.58
2023-01-25T05:33:47.495Z,1.38
2023-01-25T05:36:50.562Z,1.60
2023-01-25T05:39:53.508Z,1.27
2023-01-25T05:43:00.321Z,1.36
2023-01-25T05:46:05.130Z,1.32
2023-01-25T05:49:08.138Z,1.19
2023-01-25T05:52:15.744Z,1.24
2023-01-25T05:55:19.072Z,1.40
2023-01-25T05:58:22.108Z,1.31
2023-01-25T06:01:25.770Z,1.21
2023-01-25T06:04:30.587Z,1.28
2023-01-25T06:07:36.733Z,1.14
2023-01-25T06:10:42.783Z,1.25
2023-01-25T06:13:47.265Z,1.28
2023-01-25T06:16:52.493Z,1.07
2023-01-25T06:19:56.564Z,1.20
2023-01-25T06:23:03.343Z,1.19
2023-01-25T06:26:09.040Z,1.24
2023-01-25T06:29:14.410Z,1.22
2023-01-25T06:32:17.626Z,1.12
2023-01-25T06:35:20.836Z,0.91
2023-01-25T06:38:23.572Z,0.97
2023-01-25T06:41:27.292Z,0.97
2023-01-25T06:44:30.024Z,0.82
2023-01-25T06:47:35.081Z,0.96
2023-01-25T06:50:40.452Z,0.87
2023-01-25T06:53:45.734Z,0.98
2023-01-25T06:56:50.631Z,1.08
2023-01-25T06:59:53.650Z,1.15
2023-01-25T07:02:56.660Z,0.97
2023-01-25T07:06:04.088Z,0.96
2023-01-25T07:09:12.849Z,0.94
2023-01-25T07:12:15.995Z,0.98
2023-01-25T07:15:18.647Z,1.12
2023-01-25T07:18:22.100Z,1.30
2023-01-25T07:21:25.538Z,1.57
2023-01-25T07:24:31.453Z,1.68
2023-01-25T07:27:35.139Z,1.76
2023-01-25T07:30:40.619Z,1.82
2023-01-25T07:33:44.436Z,1.68
2023-01-25T07:36:48.183Z,1.70
2023-01-25T07:39:51.169Z,1.26
2023-01-25T07:42:54.422Z,1.67
2023-01-25T07:46:04.410Z,1.38
2023-01-25T07:49:07.336Z,1.43
2023-01-25T07:52:10.287Z,1.32
2023-01-25T07:55:15.507Z,1.55
2023-01-25T07:58:19.186Z,1.37
2023-01-25T08:01:29.284Z,1.56
2023-01-25T08:04:32.492Z,1.57
2023-01-25T08:07:36.460Z,1.63
2023-01-25T08:10:42.728Z,1.61
2023-01-25T08:13:49.318Z,1.63
2023-01-25T08:16:52.337Z,1.60
2023-01-25T08:19:55.487Z,1.83
2023-01-25T08:22:58.604Z,1.60
2023-01-25T08:26:09.417Z,1.57
2023-01-25T08:29:12.912Z,1.75
2023-01-25T08:32:16.283Z,1.76
2023-01-25T08:35:19.160Z,1.90
2023-01-25T08:38:21.739Z,2.18
2023-01-25T08:41:26.209Z,2.16
2023-01-25T08:44:29.340Z,2.16
2023-01-25T08:47:32.996Z,1.78
2023-01-25T08:50:36.369Z,2.03
2023-01-25T08:53:39.577Z,2.11
2023-01-25T08:56:43.168Z,2.23
2023-01-25T08:59:46.160Z,2.36
2023-01-25T09:02:48.945Z,2.14
2023-01-25T09:05:54.300Z,2.34
2023-01-25T09:08:59.274Z,2.19
2023-01-25T09:12:03.180Z,2.06
2023-01-25T09:15:06.273Z,1.96
2023-01-25T09:18:09.260Z,2.22
2023-01-25T09:21:17.137Z,2.66
2023-01-25T09:24:20.115Z,2.69
2023-01-25T09:27:22.847Z,2.88
2023-01-25T09:30:40.832Z,2.47
2023-01-25T09:33:52.039Z,2.60
2023-01-25T09:36:55.037Z,3.17
2023-01-25T09:39:57.714Z,3.06
2023-01-25T09:43:18.546Z,3.54
2023-01-25T09:46:44.732Z,3.11
2023-01-25T09:50:16.974Z,2.73
2023-01-25T09:53:24.559Z,3.08
2023-01-25T09:56:33.239Z,3.17
2023-01-25T09:59:36.118Z,2.77
2023-01-25T10:02:52.125Z,2.98
2023-01-25T10:06:00.883Z,2.95
2023-01-25T10:09:28.481Z,2.90
2023-01-25T10:12:37.156Z,2.97
2023-01-25T10:15:51.229Z,3.02
2023-01-25T10:19:24.204Z,3.07
2023-01-25T10:22:34.806Z,2.98
2023-01-25T10:25:54.954Z,3.02
2023-01-25T10:29:10.400Z,3.26
2023-01-25T10:32:25.100Z,3.51
2023-01-25T10:35:40.353Z,3.62
2023-01-25T10:38:49.102Z,3.57
2023-01-25T10:42:06.245Z,3.30
2023-01-25T10:45:13.843Z,3.13
2023-01-25T10:48:33.335Z,3.29
2023-01-25T10:51:36.261Z,3.51
2023-01-25T10:54:39.195Z,3.40
2023-01-25T10:57:53.368Z,3.61
2023-01-25T11:01:01.252Z,3.65
2023-01-25T11:04:23.499Z,3.69
2023-01-25T11:07:29.148Z,3.61
2023-01-25T11:10:36.363Z,3.59
2023-01-25T11:13:41.656Z,2.92
2023-01-25T11:16:48.249Z,3.58
2023-01-25T11:20:16.159Z,3.49
2023-01-25T11:23:26.091Z,3.69
2023-01-25T11:26:29.765Z,3.38
2023-01-25T11:29:32.442Z,3.65
2023-01-25T11:32:39.589Z,3.61
2023-01-25T11:36:20.110Z,3.82
2023-01-25T11:39:55.488Z,3.94
2023-01-25T11:43:35.663Z,3.68
2023-01-25T11:47:06.543Z,4.02
2023-01-25T11:50:34.739Z,3.95
2023-01-25T11:54:03.088Z,3.96
2023-01-25T11:57:24.498Z,3.69
2023-01-25T12:00:55.126Z,3.53
2023-01-25T12:04:13.476Z,3.98
2023-01-25T12:07:22.214Z,3.92
2023-01-25T12:10:44.546Z,4.15
2023-01-25T12:14:14.686Z,3.98
2023-01-25T12:17:26.861Z,4.22
2023-01-25T12:21:01.553Z,4.10
2023-01-25T12:24:17.528Z,4.12
2023-01-25T12:27:33.402Z,4.02
2023-01-25T12:30:46.447Z,3.84
2023-01-25T12:33:56.907Z,4.23
2023-01-25T12:37:07.014Z,4.17
2023-01-25T12:40:18.689Z,3.64
2023-01-25T12:43:33.146Z,3.65
2023-01-25T12:47:01.227Z,4.07
2023-01-25T12:50:07.677Z,4.27
2023-01-25T12:53:36.225Z,3.77
2023-01-25T12:56:46.571Z,3.94
2023-01-25T12:59:52.065Z,4.00
2023-01-25T13:03:12.323Z,4.21
2023-01-25T13:06:30.651Z,4.31
2023-01-25T13:09:59.530Z,4.46
2023-01-25T13:13:22.919Z,4.42
2023-01-25T13:16:30.044Z,4.39
2023-01-25T13:19:32.640Z,4.52
2023-01-25T13:22:45.883Z,4.33
2023-01-25T13:25:48.546Z,4.32
2023-01-25T13:28:53.301Z,4.32
2023-01-25T13:31:59.434Z,4.13
2023-01-25T13:35:05.153Z,4.14
2023-01-25T13:38:28.959Z,4.09
2023-01-25T13:41:32.944Z,3.96
2023-01-25T13:44:39.483Z,3.98
2023-01-25T13:47:43.960Z,4.02
2023-01-25T13:51:05.248Z,3.94
2023-01-25T13:54:16.143Z,4.17
2023-01-25T13:57:30.013Z,5.75
2023-01-25T14:00:36.242Z,6.98
2023-01-25T14:04:02.108Z,5.78
2023-01-25T14:07:10.228Z,5.56
2023-01-25T14:10:19.299Z,5.47
2023-01-25T14:13:23.981Z,5.10
2023-01-25T14:16:31.260Z,5.43
2023-01-25T14:19:37.013Z,5.09
2023-01-25T14:22:40.026Z,5.21
2023-01-25T14:25:42.635Z,4.72
2023-01-25T14:28:59.297Z,4.93
2023-01-25T14:32:05.538Z,5.24
2023-01-25T14:35:42.315Z,5.43
2023-01-25T14:39:01.993Z,6.12
2023-01-25T14:42:06.310Z,4.91
2023-01-25T14:45:14.986Z,4.82
2023-01-25T14:48:41.477Z,5.34
2023-01-25T14:51:51.604Z,5.29
2023-01-25T14:55:00.177Z,4.76
2023-01-25T14:58:03.382Z,5.25
2023-01-25T15:01:07.048Z,5.71
2023-01-25T15:04:13.071Z,4.96
2023-01-25T15:07:35.112Z,4.97
2023-01-25T15:10:52.597Z,5.02
2023-01-25T15:14:17.402Z,5.91
2023-01-25T15:17:36.826Z,5.14
2023-01-25T15:20:45.145Z,4.11
2023-01-25T15:23:49.853Z,4.25
2023-01-25T15:26:55.208Z,3.99
2023-01-25T15:29:59.404Z,3.58
2023-01-25T15:33:02.573Z,3.74
2023-01-25T15:36:05.477Z,3.61
2023-01-25T15:39:16.696Z,3.52
2023-01-25T15:42:19.230Z,3.65
2023-01-25T15:45:22.147Z,3.60
2023-01-25T15:48:34.132Z,3.75
2023-01-25T15:51:40.609Z,3.54
2023-01-25T15:54:51.758Z,3.66
2023-01-25T15:57:55.310Z,3.65
2023-01-25T16:01:00.164Z,3.38
2023-01-25T16:04:04.074Z,3.35
2023-01-25T16:07:07.104Z,3.58
2023-01-25T16:10:20.836Z,3.46
2023-01-25T16:13:24.822Z,3.35
2023-01-25T16:16:28.244Z,3.52
2023-01-25T16:19:31.800Z,3.02
2023-01-25T16:22:34.848Z,3.39
2023-01-25T16:25:42.500Z,3.19
2023-01-25T16:28:46.014Z,3.05
2023-01-25T16:31:49.814Z,3.01
2023-01-25T16:34:54.323Z,2.96
2023-01-25T16:37:57.161Z,3.08
2023-01-25T16:41:00.030Z,3.43
2023-01-25T16:44:02.906Z,3.16
2023-01-25T16:47:06.506Z,3.28
2023-01-25T16:50:19.762Z,3.03
2023-01-25T16:53:25.238Z,3.00
2023-01-25T16:56:30.632Z,2.94
2023-01-25T16:59:34.234Z,3.32
2023-01-25T17:02:49.755Z,3.17
2023-01-25T17:06:00.920Z,3.18
2023-01-25T17:09:20.430Z,2.97
2023-01-25T17:12:26.281Z,3.20
2023-01-25T17:15:29.886Z,3.28
2023-01-25T17:18:33.522Z,3.02
2023-01-25T17:21:43.180Z,3.16
2023-01-25T17:24:46.305Z,2.98
2023-01-25T17:27:49.102Z,2.83
2023-01-25T17:30:54.906Z,2.90
2023-01-25T17:33:58.049Z,3.04
2023-01-25T17:37:01.458Z,3.02
2023-01-25T17:40:04.604Z,2.98
2023-01-25T17:43:10.141Z,3.08
2023-01-25T17:46:21.971Z,3.21
2023-01-25T17:49:26.431Z,3.18
2023-01-25T17:52:29.296Z,2.96
2023-01-25T17:55:36.054Z,2.90
2023-01-25T17:58:40.848Z,3.01
2023-01-25T18:01:45.819Z,3.32
2023-01-25T18:04:49.039Z,3.14
2023-01-25T18:07:51.957Z,3.00
2023-01-25T18:10:59.222Z,2.92
2023-01-25T18:14:10.003Z,3.02
2023-01-25T18:17:13.297Z,2.98
2023-01-25T18:20:16.765Z,2.83
2023-01-25T18:23:20.098Z,2.85
2023-01-25T18:26:28.254Z,3.02
2023-01-25T18:29:46.756Z,3.02
2023-01-25T18:32:49.809Z,3.00
2023-01-25T18:35:54.080Z,2.97
2023-01-25T18:38:58.301Z,2.88
2023-01-25T18:42:02.082Z,2.73
2023-01-25T18:45:05.574Z,2.85
2023-01-25T18:48:13.515Z,2.77
2023-01-25T18:51:17.944Z,2.71
2023-01-25T18:54:21.187Z,2.75
2023-01-25T18:57:25.054Z,2.56
2023-01-25T19:00:33.536Z,2.55
2023-01-25T19:03:37.618Z,2.52
2023-01-25T19:06:41.796Z,2.58
2023-01-25T19:09:44.983Z,2.58
2023-01-25T19:12:48.889Z,2.59
2023-01-25T19:16:04.362Z,2.59
2023-01-25T19:19:09.390Z,2.57
2023-01-25T19:22:12.018Z,2.54
2023-01-25T19:25:16.448Z,2.82
2023-01-25T19:28:19.461Z,3.03
2023-01-25T19:31:25.584Z,2.81
2023-01-25T19:34:28.739Z,2.74
2023-01-25T19:37:33.921Z,2.93
2023-01-25T19:40:38.779Z,3.05
2023-01-25T19:43:42.902Z,3.04
2023-01-25T19:46:46.068Z,3.01
2023-01-25T19:49:49.475Z,2.80
2023-01-25T19:52:52.304Z,2.92
2023-01-25T19:56:02.233Z,2.90
2023-01-25T19:59:12.283Z,2.88
2023-01-25T20:02:15.673Z,2.72
2023-01-25T20:05:22.176Z,2.83
2023-01-25T20:08:29.941Z,2.66
2023-01-25T20:11:34.419Z,2.73
2023-01-25T20:14:38.059Z,2.86
2023-01-25T20:17:42.078Z,2.82
2023-01-25T20:20:45.750Z,2.61
2023-01-25T20:23:53.093Z,2.66
2023-01-25T20:26:58.863Z,2.76
2023-01-25T20:30:02.548Z,2.93
2023-01-25T20:33:13.738Z,2.78
2023-01-25T20:36:18.287Z,2.70
2023-01-25T20:39:22.790Z,2.74
2023-01-25T20:42:27.421Z,2.82
2023-01-25T20:45:35.349Z,2.74
2023-01-25T20:48:40.320Z,2.59
2023-01-25T20:51:44.389Z,2.37
2023-01-25T20:54:47.743Z,2.35
2023-01-25T20:57:54.295Z,2.43
2023-01-25T21:00:59.884Z,2.46
2023-01-25T21:04:16.646Z,2.47
2023-01-25T21:07:19.887Z,2.43
2023-01-25T21:10:24.843Z,2.64
2023-01-25T21:13:29.376Z,2.50
2023-01-25T21:16:32.560Z,2.62
2023-01-25T21:19:35.864Z,2.66
2023-01-25T21:22:38.928Z,2.59
2023-01-25T21:25:42.427Z,2.51
2023-01-25T21:28:46.082Z,2.62
2023-01-25T21:31:51.190Z,2.52
2023-01-25T21:34:54.382Z,2.55
2023-01-25T21:37:57.903Z,2.56
2023-01-25T21:41:02.850Z,2.69
2023-01-25T21:44:25.172Z,2.69
2023-01-25T21:47:31.404Z,2.62
2023-01-25T21:50:56.613Z,2.79
2023-01-25T21:54:02.532Z,2.48
2023-01-25T21:57:10.137Z,2.48
2023-01-25T22:00:16.310Z,2.46
2023-01-25T22:03:19.482Z,2.42
2023-01-25T22:06:22.457Z,2.35
2023-01-25T22:09:25.695Z,2.65
2023-01-25T22:12:28.489Z,2.68
2023-01-25T22:15:31.645Z,2.61
2023-01-25T22:18:37.701Z,2.57
2023-01-25T22:21:40.828Z,2.39
2023-01-25T22:24:43.585Z,2.50
2023-01-25T22:27:55.312Z,2.47
2023-01-25T22:30:58.433Z,2.52
2023-01-25T22:34:01.542Z,2.51
2023-01-25T22:37:04.167Z,2.60
2023-01-25T22:40:09.538Z,2.52
2023-01-25T22:43:14.446Z,2.45
2023-01-25T22:46:20.260Z,2.49
2023-01-25T22:49:22.953Z,2.46
2023-01-25T22:52:26.891Z,2.53
2023-01-25T22:55:29.831Z,2.62
2023-01-25T22:58:35.180Z,2.55
2023-01-25T23:01:37.901Z,2.60
2023-01-25T23:04:40.893Z,2.40
2023-01-25T23:07:43.505Z,2.47
2023-01-25T23:10:48.366Z,2.66
2023-01-25T23:14:11.723Z,2.80
2023-01-25T23:17:33.216Z,2.58
2023-01-25T23:20:38.620Z,2.55
2023-01-25T23:23:41.687Z,2.60
2023-01-25T23:26:46.586Z,2.55
2023-01-25T23:29:52.460Z,2.69
2023-01-25T23:32:55.320Z,2.69
2023-01-25T23:36:09.063Z,2.80
2023-01-25T23:39:14.676Z,2.67
2023-01-25T23:42:18.216Z,2.44
2023-01-25T23:45:21.014Z,2.48
2023-01-25T23:48:24.083Z,2.53
2023-01-25T23:51:28.024Z,2.65
2023-01-25T23:54:31.262Z,2.59
2023-01-25T23:57:33.832Z,2.69
